sensor_id;sensor_type;location;lat;lon;timestamp;pressure;altitude;pressure_sealevel;temperature;humidity
6216;BME280;3141;49.234;9.326;2022-08-24T00:00:10;99772.63;;;20.68;54.27
6216;BME280;3141;49.234;9.326;2022-08-24T00:00:53;99776.03;;;20.57;54.66
6216;BME280;3141;49.234;9.326;2022-08-24T00:01:36;99770.44;;;20.58;54.48
6216;BME280;3141;49.234;9.326;2022-08-24T00:02:18;99770.84;;;20.55;54.55
6216;BME280;3141;49.234;9.326;2022-08-24T00:03:00;99777.28;;;20.54;54.68
6216;BME280;3141;49.234;9.326;2022-08-24T00:03:45;99774.97;;;20.58;54.44
6216;BME280;3141;49.234;9.326;2022-08-24T00:04:28;99780.50;;;20.63;54.03
6216;BME280;3141;49.234;9.326;2022-08-24T00:05:11;99774.53;;;20.61;53.85
6216;BME280;3141;49.234;9.326;2022-08-24T00:05:53;99777.50;;;20.53;54.09
6216;BME280;3141;49.234;9.326;2022-08-24T00:06:35;99778.97;;;20.49;54.03
6216;BME280;3141;49.234;9.326;2022-08-24T00:07:19;99771.06;;;20.54;53.98
6216;BME280;3141;49.234;9.326;2022-08-24T00:08:02;99776.09;;;20.44;54.18
6216;BME280;3141;49.234;9.326;2022-08-24T00:08:46;99775.75;;;20.34;54.54
6216;BME280;3141;49.234;9.326;2022-08-24T00:09:30;99767.38;;;20.17;55.00
6216;BME280;3141;49.234;9.326;2022-08-24T00:10:13;99772.34;;;20.07;55.34
6216;BME280;3141;49.234;9.326;2022-08-24T00:10:56;99771.94;;;20.10;55.51
6216;BME280;3141;49.234;9.326;2022-08-24T00:11:38;99770.06;;;20.11;55.52
6216;BME280;3141;49.234;9.326;2022-08-24T00:12:21;99769.03;;;20.12;55.39
6216;BME280;3141;49.234;9.326;2022-08-24T00:13:03;99765.34;;;20.06;55.91
6216;BME280;3141;49.234;9.326;2022-08-24T00:13:46;99771.94;;;20.10;55.83
6216;BME280;3141;49.234;9.326;2022-08-24T00:14:28;99773.59;;;20.11;56.02
6216;BME280;3141;49.234;9.326;2022-08-24T00:15:12;99769.03;;;20.18;55.74
6216;BME280;3141;49.234;9.326;2022-08-24T00:15:55;99765.69;;;20.23;55.57
6216;BME280;3141;49.234;9.326;2022-08-24T00:16:37;99777.00;;;20.31;55.12
6216;BME280;3141;49.234;9.326;2022-08-24T00:17:20;99772.50;;;20.25;55.32
6216;BME280;3141;49.234;9.326;2022-08-24T00:18:02;99771.09;;;20.16;55.87
6216;BME280;3141;49.234;9.326;2022-08-24T00:18:46;99763.28;;;20.08;56.12
6216;BME280;3141;49.234;9.326;2022-08-24T00:19:29;99766.38;;;20.05;56.32
6216;BME280;3141;49.234;9.326;2022-08-24T00:20:12;99762.50;;;20.01;56.38
6216;BME280;3141;49.234;9.326;2022-08-24T00:20:54;99767.06;;;19.94;56.62
6216;BME280;3141;49.234;9.326;2022-08-24T00:21:36;99769.56;;;19.89;56.82
6216;BME280;3141;49.234;9.326;2022-08-24T00:22:19;99777.19;;;19.92;56.82
6216;BME280;3141;49.234;9.326;2022-08-24T00:23:03;99782.38;;;19.87;57.13
6216;BME280;3141;49.234;9.326;2022-08-24T00:23:45;99773.53;;;19.80;57.69
6216;BME280;3141;49.234;9.326;2022-08-24T00:24:30;99772.91;;;19.78;57.73
6216;BME280;3141;49.234;9.326;2022-08-24T00:25:13;99769.63;;;19.70;57.95
6216;BME280;3141;49.234;9.326;2022-08-24T00:25:56;99771.50;;;19.76;58.08
6216;BME280;3141;49.234;9.326;2022-08-24T00:26:38;99772.88;;;19.85;57.47
6216;BME280;3141;49.234;9.326;2022-08-24T00:27:20;99777.25;;;19.79;57.55
6216;BME280;3141;49.234;9.326;2022-08-24T00:28:04;99772.91;;;19.78;57.63
6216;BME280;3141;49.234;9.326;2022-08-24T00:28:46;99778.28;;;19.78;57.39
6216;BME280;3141;49.234;9.326;2022-08-24T00:29:29;99776.41;;;19.79;57.80
6216;BME280;3141;49.234;9.326;2022-08-24T00:30:14;99779.94;;;19.79;57.90
6216;BME280;3141;49.234;9.326;2022-08-24T00:30:57;99780.34;;;19.83;57.62
6216;BME280;3141;49.234;9.326;2022-08-24T00:31:39;99784.69;;;19.77;57.83
6216;BME280;3141;49.234;9.326;2022-08-24T00:32:22;99783.03;;;19.83;57.98
6216;BME280;3141;49.234;9.326;2022-08-24T00:33:04;99785.69;;;19.83;58.16
6216;BME280;3141;49.234;9.326;2022-08-24T00:33:46;99782.97;;;19.89;57.70
6216;BME280;3141;49.234;9.326;2022-08-24T00:34:29;99786.88;;;19.93;57.45
6216;BME280;3141;49.234;9.326;2022-08-24T00:35:14;99783.81;;;19.83;57.88
6216;BME280;3141;49.234;9.326;2022-08-24T00:35:59;99779.72;;;19.81;58.08
6216;BME280;3141;49.234;9.326;2022-08-24T00:36:41;99784.88;;;19.82;58.08
6216;BME280;3141;49.234;9.326;2022-08-24T00:37:24;99781.78;;;19.79;57.92
6216;BME280;3141;49.234;9.326;2022-08-24T00:38:06;99782.44;;;19.74;58.05
6216;BME280;3141;49.234;9.326;2022-08-24T00:38:49;99781.81;;;19.66;58.44
6216;BME280;3141;49.234;9.326;2022-08-24T00:39:31;99777.69;;;19.70;58.47
6216;BME280;3141;49.234;9.326;2022-08-24T00:40:18;99778.94;;;19.67;58.48
6216;BME280;3141;49.234;9.326;2022-08-24T00:41:02;99779.53;;;19.69;58.33
6216;BME280;3141;49.234;9.326;2022-08-24T00:41:47;99778.13;;;19.67;58.44
6216;BME280;3141;49.234;9.326;2022-08-24T00:42:30;99781.19;;;19.70;58.36
6216;BME280;3141;49.234;9.326;2022-08-24T00:43:13;99775.00;;;19.70;58.48
6216;BME280;3141;49.234;9.326;2022-08-24T00:44:01;99780.75;;;19.73;58.24
6216;BME280;3141;49.234;9.326;2022-08-24T00:44:44;99779.53;;;19.76;58.24
6216;BME280;3141;49.234;9.326;2022-08-24T00:45:26;99779.53;;;19.69;58.19
6216;BME280;3141;49.234;9.326;2022-08-24T00:46:22;99780.56;;;19.75;57.94
6216;BME280;3141;49.234;9.326;2022-08-24T00:47:20;99777.25;;;19.79;57.49
6216;BME280;3141;49.234;9.326;2022-08-24T00:48:12;99786.50;;;19.83;57.05
6216;BME280;3141;49.234;9.326;2022-08-24T00:49:07;99782.38;;;19.87;57.08
6216;BME280;3141;49.234;9.326;2022-08-24T00:49:56;99784.00;;;19.88;56.83
6216;BME280;3141;49.234;9.326;2022-08-24T00:50:46;99785.22;;;19.92;56.80
6216;BME280;3141;49.234;9.326;2022-08-24T00:51:38;99790.59;;;19.92;56.75
6216;BME280;3141;49.234;9.326;2022-08-24T00:52:25;99788.16;;;19.84;57.19
6216;BME280;3141;49.234;9.326;2022-08-24T00:53:12;99782.41;;;19.81;57.25
6216;BME280;3141;49.234;9.326;2022-08-24T00:54:01;99785.47;;;19.84;57.15
6216;BME280;3141;49.234;9.326;2022-08-24T00:54:54;99781.38;;;19.75;57.50
6216;BME280;3141;49.234;9.326;2022-08-24T00:55:44;99790.25;;;19.69;57.69
6216;BME280;3141;49.234;9.326;2022-08-24T00:56:32;99783.66;;;19.72;57.47
6216;BME280;3141;49.234;9.326;2022-08-24T00:57:19;99788.19;;;19.71;58.01
6216;BME280;3141;49.234;9.326;2022-08-24T00:58:13;99781.44;;;19.62;58.38
6216;BME280;3141;49.234;9.326;2022-08-24T00:59:04;99787.41;;;19.64;57.98
6216;BME280;3141;49.234;9.326;2022-08-24T00:59:58;99796.31;;;19.58;58.45
6216;BME280;3141;49.234;9.326;2022-08-24T01:00:44;99793.63;;;19.58;58.25
6216;BME280;3141;49.234;9.326;2022-08-24T01:01:30;99783.91;;;19.57;58.11
6216;BME280;3141;49.234;9.326;2022-08-24T01:02:20;99789.88;;;19.72;57.74
6216;BME280;3141;49.234;9.326;2022-08-24T01:03:07;99791.53;;;19.67;57.86
6216;BME280;3141;49.234;9.326;2022-08-24T01:03:49;99790.84;;;19.78;57.61
6216;BME280;3141;49.234;9.326;2022-08-24T01:04:37;99789.44;;;19.75;57.64
6216;BME280;3141;49.234;9.326;2022-08-24T01:05:21;99796.03;;;19.79;57.44
6216;BME280;3141;49.234;9.326;2022-08-24T01:06:03;99784.91;;;19.76;57.55
6216;BME280;3141;49.234;9.326;2022-08-24T01:06:46;99788.16;;;19.78;57.43
6216;BME280;3141;49.234;9.326;2022-08-24T01:07:31;99789.03;;;19.72;57.44
6216;BME280;3141;49.234;9.326;2022-08-24T01:08:14;99789.00;;;19.78;57.22
6216;BME280;3141;49.234;9.326;2022-08-24T01:08:58;99787.34;;;19.84;56.96
6216;BME280;3141;49.234;9.326;2022-08-24T01:09:41;99790.06;;;19.77;57.21
6216;BME280;3141;49.234;9.326;2022-08-24T01:10:26;99791.31;;;19.68;57.58
6216;BME280;3141;49.234;9.326;2022-08-24T01:11:14;99789.28;;;19.64;57.84
6216;BME280;3141;49.234;9.326;2022-08-24T01:11:59;99793.16;;;19.74;57.64
6216;BME280;3141;49.234;9.326;2022-08-24T01:12:44;99792.91;;;19.82;57.42
6216;BME280;3141;49.234;9.326;2022-08-24T01:13:31;99794.97;;;19.80;57.68
6216;BME280;3141;49.234;9.326;2022-08-24T01:14:15;99786.09;;;19.80;57.86
6216;BME280;3141;49.234;9.326;2022-08-24T01:15:00;99789.00;;;19.78;57.63
6216;BME280;3141;49.234;9.326;2022-08-24T01:15:48;99789.88;;;19.72;57.97
6216;BME280;3141;49.234;9.326;2022-08-24T01:16:32;99786.56;;;19.70;57.68
6216;BME280;3141;49.234;9.326;2022-08-24T01:17:34;99790.06;;;19.71;57.73
6216;BME280;3141;49.234;9.326;2022-08-24T01:18:37;99783.44;;;19.73;57.82
6216;BME280;3141;49.234;9.326;2022-08-24T01:19:34;99783.66;;;19.72;58.11
6216;BME280;3141;49.234;9.326;2022-08-24T01:20:18;99786.38;;;19.65;58.47
6216;BME280;3141;49.234;9.326;2022-08-24T01:23:59;99790.22;;;19.82;57.50
6216;BME280;3141;49.234;9.326;2022-08-24T01:24:42;99801.81;;;19.76;57.71
6216;BME280;3141;49.234;9.326;2022-08-24T01:25:27;99793.13;;;19.81;57.45
6216;BME280;3141;49.234;9.326;2022-08-24T01:26:14;99796.63;;;19.81;57.46
6216;BME280;3141;49.234;9.326;2022-08-24T01:26:59;99802.41;;;19.78;57.93
6216;BME280;3141;49.234;9.326;2022-08-24T01:27:43;99791.94;;;19.70;57.87
6216;BME280;3141;49.234;9.326;2022-08-24T01:28:26;99796.44;;;19.76;57.72
6216;BME280;3141;49.234;9.326;2022-08-24T01:29:11;99799.53;;;19.73;58.10
6216;BME280;3141;49.234;9.326;2022-08-24T01:29:57;99792.13;;;19.75;58.09
6216;BME280;3141;49.234;9.326;2022-08-24T01:30:41;99793.13;;;19.81;57.69
6216;BME280;3141;49.234;9.326;2022-08-24T01:31:23;99793.13;;;19.81;57.56
6216;BME280;3141;49.234;9.326;2022-08-24T01:32:06;99793.75;;;19.83;57.47
6216;BME280;3141;49.234;9.326;2022-08-24T01:32:55;99791.47;;;19.80;57.64
6216;BME280;3141;49.234;9.326;2022-08-24T01:33:38;99789.63;;;19.80;57.45
6216;BME280;3141;49.234;9.326;2022-08-24T01:34:20;99790.66;;;19.73;57.78
6216;BME280;3141;49.234;9.326;2022-08-24T01:35:04;99795.19;;;19.79;57.65
6216;BME280;3141;49.234;9.326;2022-08-24T01:35:46;99793.75;;;19.76;57.79
6216;BME280;3141;49.234;9.326;2022-08-24T01:36:35;99790.25;;;19.69;58.19
6216;BME280;3141;49.234;9.326;2022-08-24T01:37:19;99792.16;;;19.62;58.45
6216;BME280;3141;49.234;9.326;2022-08-24T01:38:06;99791.94;;;19.57;58.96
6216;BME280;3141;49.234;9.326;2022-08-24T01:38:50;99790.50;;;19.61;58.46
6216;BME280;3141;49.234;9.326;2022-08-24T01:39:39;99794.66;;;19.50;59.07
6216;BME280;3141;49.234;9.326;2022-08-24T01:40:25;99792.81;;;19.51;59.02
6216;BME280;3141;49.234;9.326;2022-08-24T01:41:10;99796.31;;;19.58;58.71
6216;BME280;3141;49.234;9.326;2022-08-24T01:41:53;99791.16;;;19.50;58.95
6216;BME280;3141;49.234;9.326;2022-08-24T01:42:35;99788.47;;;19.57;58.61
6216;BME280;3141;49.234;9.326;2022-08-24T01:43:17;99792.75;;;19.64;58.54
6216;BME280;3141;49.234;9.326;2022-08-24T01:44:00;99794.22;;;19.60;59.08
6216;BME280;3141;49.234;9.326;2022-08-24T01:44:44;99789.69;;;19.54;59.08
6216;BME280;3141;49.234;9.326;2022-08-24T01:45:26;99792.00;;;19.44;59.38
6216;BME280;3141;49.234;9.326;2022-08-24T01:46:09;99797.97;;;19.46;59.37
6216;BME280;3141;49.234;9.326;2022-08-24T01:46:53;99788.09;;;19.46;59.17
6216;BME280;3141;49.234;9.326;2022-08-24T01:47:36;99790.56;;;19.48;58.91
6216;BME280;3141;49.234;9.326;2022-08-24T01:48:19;99788.28;;;19.45;59.04
6216;BME280;3141;49.234;9.326;2022-08-24T01:49:02;99793.63;;;19.45;58.88
6216;BME280;3141;49.234;9.326;2022-08-24T01:49:47;99792.63;;;19.39;59.28
6216;BME280;3141;49.234;9.326;2022-08-24T01:50:30;99790.75;;;19.40;59.34
6216;BME280;3141;49.234;9.326;2022-08-24T01:51:12;99790.56;;;19.48;59.40
6216;BME280;3141;49.234;9.326;2022-08-24T01:51:55;99795.69;;;19.49;59.47
6216;BME280;3141;49.234;9.326;2022-08-24T01:52:39;99797.16;;;19.39;59.63
6216;BME280;3141;49.234;9.326;2022-08-24T01:53:23;99795.72;;;19.30;60.28
6216;BME280;3141;49.234;9.326;2022-08-24T01:54:06;99791.19;;;19.37;59.82
6216;BME280;3141;49.234;9.326;2022-08-24T01:54:48;99794.69;;;19.37;59.86
6216;BME280;3141;49.234;9.326;2022-08-24T01:55:32;99794.28;;;19.34;60.07
6216;BME280;3141;49.234;9.326;2022-08-24T01:56:14;99791.19;;;19.37;59.81
6216;BME280;3141;49.234;9.326;2022-08-24T01:56:58;99789.56;;;19.36;59.68
6216;BME280;3141;49.234;9.326;2022-08-24T01:57:40;99789.34;;;19.31;60.04
6216;BME280;3141;49.234;9.326;2022-08-24T01:58:23;99789.72;;;19.28;60.30
6216;BME280;3141;49.234;9.326;2022-08-24T01:59:06;99799.44;;;19.29;59.89
6216;BME280;3141;49.234;9.326;2022-08-24T01:59:48;99791.38;;;19.29;60.02
6216;BME280;3141;49.234;9.326;2022-08-24T02:00:32;99799.81;;;19.26;60.06
6216;BME280;3141;49.234;9.326;2022-08-24T02:01:16;99794.88;;;19.29;59.71
6216;BME280;3141;49.234;9.326;2022-08-24T02:02:09;99793.66;;;19.32;59.55
6216;BME280;3141;49.234;9.326;2022-08-24T02:02:52;99795.72;;;19.30;59.77
6216;BME280;3141;49.234;9.326;2022-08-24T02:03:36;99793.22;;;19.41;59.13
6216;BME280;3141;49.234;9.326;2022-08-24T02:04:19;99794.69;;;19.44;59.23
6216;BME280;3141;49.234;9.326;2022-08-24T02:05:02;99797.56;;;19.49;58.69
6216;BME280;3141;49.234;9.326;2022-08-24T02:05:44;99799.63;;;19.47;59.03
6216;BME280;3141;49.234;9.326;2022-08-24T02:06:27;99797.16;;;19.39;59.87
6216;BME280;3141;49.234;9.326;2022-08-24T02:07:10;99797.81;;;19.34;59.55
6216;BME280;3141;49.234;9.326;2022-08-24T02:07:52;99791.38;;;19.29;60.05
6216;BME280;3141;49.234;9.326;2022-08-24T02:08:34;99802.50;;;19.26;60.28
6216;BME280;3141;49.234;9.326;2022-08-24T02:09:17;99792.81;;;19.25;59.98
6216;BME280;3141;49.234;9.326;2022-08-24T02:09:59;99796.94;;;19.21;59.57
6216;BME280;3141;49.234;9.326;2022-08-24T02:10:42;99797.56;;;19.23;59.65
6216;BME280;3141;49.234;9.326;2022-08-24T02:11:25;99799.03;;;19.32;59.34
6216;BME280;3141;49.234;9.326;2022-08-24T02:12:07;99796.34;;;19.32;59.48
6216;BME280;3141;49.234;9.326;2022-08-24T02:12:50;99802.75;;;19.31;59.27
6216;BME280;3141;49.234;9.326;2022-08-24T02:13:40;99803.56;;;19.31;58.96
6216;BME280;3141;49.234;9.326;2022-08-24T02:14:23;99803.16;;;19.34;58.71
6216;BME280;3141;49.234;9.326;2022-08-24T02:15:06;99809.53;;;19.33;58.76
6216;BME280;3141;49.234;9.326;2022-08-24T02:15:49;99806.84;;;19.27;59.26
6216;BME280;3141;49.234;9.326;2022-08-24T02:16:31;99807.88;;;19.26;58.96
6216;BME280;3141;49.234;9.326;2022-08-24T02:17:15;99802.31;;;19.27;59.28
6216;BME280;3141;49.234;9.326;2022-08-24T02:17:58;99807.28;;;19.24;58.90
6216;BME280;3141;49.234;9.326;2022-08-24T02:18:41;99804.16;;;19.27;58.82
6216;BME280;3141;49.234;9.326;2022-08-24T02:19:24;99803.13;;;19.21;58.94
6216;BME280;3141;49.234;9.326;2022-08-24T02:20:08;99806.88;;;19.20;59.20
6216;BME280;3141;49.234;9.326;2022-08-24T02:20:50;99810.97;;;19.16;59.24
6216;BME280;3141;49.234;9.326;2022-08-24T02:21:34;99811.38;;;19.20;59.01
6216;BME280;3141;49.234;9.326;2022-08-24T02:22:16;99807.88;;;19.13;59.11
6216;BME280;3141;49.234;9.326;2022-08-24T02:22:59;99813.03;;;19.14;59.39
6216;BME280;3141;49.234;9.326;2022-08-24T02:23:42;99808.06;;;19.24;58.94
6216;BME280;3141;49.234;9.326;2022-08-24T02:24:28;99818.19;;;19.22;59.14
6216;BME280;3141;49.234;9.326;2022-08-24T02:25:10;99814.28;;;19.18;59.55
6216;BME280;3141;49.234;9.326;2022-08-24T02:25:53;99808.31;;;19.16;59.59
6216;BME280;3141;49.234;9.326;2022-08-24T02:26:36;99813.66;;;19.23;59.35
6216;BME280;3141;49.234;9.326;2022-08-24T02:27:18;99812.03;;;19.15;59.68
6216;BME280;3141;49.234;9.326;2022-08-24T02:28:01;99811.59;;;19.25;59.47
6216;BME280;3141;49.234;9.326;2022-08-24T02:28:44;99810.13;;;19.22;59.47
6216;BME280;3141;49.234;9.326;2022-08-24T02:29:26;99814.88;;;19.14;60.02
6216;BME280;3141;49.234;9.326;2022-08-24T02:30:09;99813.66;;;19.16;59.81
6216;BME280;3141;49.234;9.326;2022-08-24T02:30:51;99818.81;;;19.18;59.44
6216;BME280;3141;49.234;9.326;2022-08-24T02:31:34;99810.97;;;19.16;59.66
6216;BME280;3141;49.234;9.326;2022-08-24T02:32:17;99804.38;;;19.12;59.54
6216;BME280;3141;49.234;9.326;2022-08-24T02:33:00;99813.84;;;19.21;59.12
6216;BME280;3141;49.234;9.326;2022-08-24T02:33:43;99805.22;;;19.13;59.55
6216;BME280;3141;49.234;9.326;2022-08-24T02:34:25;99806.44;;;19.10;59.62
6216;BME280;3141;49.234;9.326;2022-08-24T02:35:08;99810.78;;;19.05;59.78
6216;BME280;3141;49.234;9.326;2022-08-24T02:35:51;99811.81;;;19.04;59.71
6216;BME280;3141;49.234;9.326;2022-08-24T02:36:35;99814.69;;;19.02;59.94
6216;BME280;3141;49.234;9.326;2022-08-24T02:37:17;99812.44;;;18.99;60.27
6216;BME280;3141;49.234;9.326;2022-08-24T02:38:00;99813.06;;;19.01;59.94
6216;BME280;3141;49.234;9.326;2022-08-24T02:38:42;99808.72;;;19.00;59.80
6216;BME280;3141;49.234;9.326;2022-08-24T02:39:26;99808.91;;;18.99;59.91
6216;BME280;3141;49.234;9.326;2022-08-24T02:40:08;99808.91;;;18.99;60.08
6216;BME280;3141;49.234;9.326;2022-08-24T02:40:51;99812.66;;;18.91;60.47
6216;BME280;3141;49.234;9.326;2022-08-24T02:41:34;99809.75;;;18.93;60.36
6216;BME280;3141;49.234;9.326;2022-08-24T02:42:17;99804.63;;;18.91;60.18
6216;BME280;3141;49.234;9.326;2022-08-24T02:42:59;99811.59;;;18.99;59.99
6216;BME280;3141;49.234;9.326;2022-08-24T02:43:42;99808.50;;;18.89;60.27
6216;BME280;3141;49.234;9.326;2022-08-24T02:44:24;99813.44;;;18.92;60.48
6216;BME280;3141;49.234;9.326;2022-08-24T02:45:07;99815.91;;;18.93;60.25
6216;BME280;3141;49.234;9.326;2022-08-24T02:45:50;99814.91;;;18.94;60.34
6216;BME280;3141;49.234;9.326;2022-08-24T02:46:33;99807.69;;;18.95;60.60
6216;BME280;3141;49.234;9.326;2022-08-24T02:47:15;99815.91;;;18.93;60.45
6216;BME280;3141;49.234;9.326;2022-08-24T02:47:58;99813.44;;;18.92;60.87
6216;BME280;3141;49.234;9.326;2022-08-24T02:48:40;99813.44;;;18.92;60.88
6216;BME280;3141;49.234;9.326;2022-08-24T02:49:23;99815.50;;;18.90;60.72
6216;BME280;3141;49.234;9.326;2022-08-24T02:50:08;99809.31;;;18.83;61.10
6216;BME280;3141;49.234;9.326;2022-08-24T02:50:51;99806.03;;;18.87;60.79
6216;BME280;3141;49.234;9.326;2022-08-24T02:51:34;99810.16;;;18.90;60.39
6216;BME280;3141;49.234;9.326;2022-08-24T02:52:16;99799.66;;;18.82;60.28
6216;BME280;3141;49.234;9.326;2022-08-24T02:52:59;99808.94;;;18.86;60.21
6216;BME280;3141;49.234;9.326;2022-08-24T02:53:41;99806.25;;;18.86;59.86
6216;BME280;3141;49.234;9.326;2022-08-24T02:54:23;99807.69;;;18.82;60.01
6216;BME280;3141;49.234;9.326;2022-08-24T02:55:10;99800.91;;;18.79;60.08
6216;BME280;3141;49.234;9.326;2022-08-24T02:55:52;99811.19;;;18.82;59.94
6216;BME280;3141;49.234;9.326;2022-08-24T02:56:35;99805.63;;;18.84;59.74
6216;BME280;3141;49.234;9.326;2022-08-24T02:57:17;99801.94;;;18.91;59.60
6216;BME280;3141;49.234;9.326;2022-08-24T02:57:59;99805.22;;;18.87;59.69
6216;BME280;3141;49.234;9.326;2022-08-24T02:58:43;99798.22;;;18.92;59.43
6216;BME280;3141;49.234;9.326;2022-08-24T02:59:25;99803.16;;;18.89;59.77
6216;BME280;3141;49.234;9.326;2022-08-24T03:00:11;99796.97;;;18.88;59.46
6216;BME280;3141;49.234;9.326;2022-08-24T03:00:54;99794.91;;;18.97;59.34
6216;BME280;3141;49.234;9.326;2022-08-24T03:01:37;99798.00;;;18.94;59.39
6216;BME280;3141;49.234;9.326;2022-08-24T03:02:19;99802.31;;;18.95;59.20
6216;BME280;3141;49.234;9.326;2022-08-24T03:03:02;99804.00;;;18.89;59.72
6216;BME280;3141;49.234;9.326;2022-08-24T03:03:44;99796.16;;;18.88;59.32
6216;BME280;3141;49.234;9.326;2022-08-24T03:04:27;99792.44;;;18.82;59.59
6216;BME280;3141;49.234;9.326;2022-08-24T03:05:10;99795.94;;;18.83;59.61
6216;BME280;3141;49.234;9.326;2022-08-24T03:05:52;99799.22;;;18.85;59.26
6216;BME280;3141;49.234;9.326;2022-08-24T03:06:35;99795.13;;;18.89;59.52
6216;BME280;3141;49.234;9.326;2022-08-24T03:07:17;99799.44;;;18.90;59.13
6216;BME280;3141;49.234;9.326;2022-08-24T03:08:00;99799.03;;;18.93;59.41
6216;BME280;3141;49.234;9.326;2022-08-24T03:08:42;99792.03;;;18.92;59.04
6216;BME280;3141;49.234;9.326;2022-08-24T03:09:26;99795.13;;;18.89;59.27
6216;BME280;3141;49.234;9.326;2022-08-24T03:10:09;99791.41;;;18.77;59.87
6216;BME280;3141;49.234;9.326;2022-08-24T03:10:51;99792.44;;;18.76;59.86
6216;BME280;3141;49.234;9.326;2022-08-24T03:11:34;99791.63;;;18.82;59.42
6216;BME280;3141;49.234;9.326;2022-08-24T03:12:16;99796.56;;;18.78;59.65
6216;BME280;3141;49.234;9.326;2022-08-24T03:12:59;99789.34;;;18.79;59.85
6216;BME280;3141;49.234;9.326;2022-08-24T03:13:42;99790.56;;;18.76;59.88
6216;BME280;3141;49.234;9.326;2022-08-24T03:14:24;99794.50;;;18.80;59.71
6216;BME280;3141;49.234;9.326;2022-08-24T03:15:09;99792.03;;;18.85;59.50
6216;BME280;3141;49.234;9.326;2022-08-24T03:15:53;99791.41;;;18.83;60.11
6216;BME280;3141;49.234;9.326;2022-08-24T03:16:36;99796.13;;;18.81;59.83
6216;BME280;3141;49.234;9.326;2022-08-24T03:17:19;99795.34;;;18.81;60.08
6216;BME280;3141;49.234;9.326;2022-08-24T03:18:02;99797.78;;;18.69;59.90
6216;BME280;3141;49.234;9.326;2022-08-24T03:18:44;99793.66;;;18.73;59.86
6216;BME280;3141;49.234;9.326;2022-08-24T03:19:26;99797.38;;;18.79;59.27
6216;BME280;3141;49.234;9.326;2022-08-24T03:20:15;99795.72;;;18.78;59.70
6216;BME280;3141;49.234;9.326;2022-08-24T03:20:59;99794.09;;;18.70;60.06
6216;BME280;3141;49.234;9.326;2022-08-24T03:21:42;99792.03;;;18.79;59.67
6216;BME280;3141;49.234;9.326;2022-08-24T03:22:24;99793.88;;;18.78;59.81
6216;BME280;3141;49.234;9.326;2022-08-24T03:23:07;99795.94;;;18.76;59.95
6216;BME280;3141;49.234;9.326;2022-08-24T03:23:49;99793.47;;;18.75;59.74
6216;BME280;3141;49.234;9.326;2022-08-24T03:24:31;99791.19;;;18.72;60.08
6216;BME280;3141;49.234;9.326;2022-08-24T03:25:15;99799.03;;;18.73;59.75
6216;BME280;3141;49.234;9.326;2022-08-24T03:25:58;99791.19;;;18.78;59.64
6216;BME280;3141;49.234;9.326;2022-08-24T03:26:40;99802.75;;;18.79;59.51
6216;BME280;3141;49.234;9.326;2022-08-24T03:27:22;99799.44;;;18.77;59.54
6216;BME280;3141;49.234;9.326;2022-08-24T03:28:05;99794.09;;;18.70;59.89
6216;BME280;3141;49.234;9.326;2022-08-24T03:28:48;99797.97;;;18.68;59.93
6216;BME280;3141;49.234;9.326;2022-08-24T03:29:30;99794.47;;;18.61;60.15
6216;BME280;3141;49.234;9.326;2022-08-24T03:30:14;99792.84;;;18.60;60.46
6216;BME280;3141;49.234;9.326;2022-08-24T03:30:57;99789.94;;;18.55;60.24
6216;BME280;3141;49.234;9.326;2022-08-24T03:31:40;99792.63;;;18.61;60.16
6216;BME280;3141;49.234;9.326;2022-08-24T03:32:22;99795.53;;;18.66;59.76
6216;BME280;3141;49.234;9.326;2022-08-24T03:33:05;99788.94;;;18.69;59.76
6216;BME280;3141;49.234;9.326;2022-08-24T03:33:48;99791.41;;;18.64;60.42
6216;BME280;3141;49.234;9.326;2022-08-24T03:34:30;99787.28;;;18.61;60.90
6216;BME280;3141;49.234;9.326;2022-08-24T03:35:14;99790.97;;;18.54;61.35
6216;BME280;3141;49.234;9.326;2022-08-24T03:35:56;99795.09;;;18.56;61.06
6216;BME280;3141;49.234;9.326;2022-08-24T03:36:40;99787.91;;;18.57;60.98
6216;BME280;3141;49.234;9.326;2022-08-24T03:37:22;99785.22;;;18.57;60.67
6216;BME280;3141;49.234;9.326;2022-08-24T03:38:05;99787.47;;;18.60;60.59
6216;BME280;3141;49.234;9.326;2022-08-24T03:38:47;99783.75;;;18.54;61.01
6216;BME280;3141;49.234;9.326;2022-08-24T03:39:29;99782.94;;;18.54;60.51
6216;BME280;3141;49.234;9.326;2022-08-24T03:40:12;99787.06;;;18.50;60.93
6216;BME280;3141;49.234;9.326;2022-08-24T03:40:54;99792.00;;;18.53;60.74
6216;BME280;3141;49.234;9.326;2022-08-24T03:41:36;99787.69;;;18.52;61.08
6216;BME280;3141;49.234;9.326;2022-08-24T03:42:19;99795.09;;;18.50;61.10
6216;BME280;3141;49.234;9.326;2022-08-24T03:43:01;99790.75;;;18.49;60.88
6216;BME280;3141;49.234;9.326;2022-08-24T03:43:44;99785.78;;;18.32;62.11
6216;BME280;3141;49.234;9.326;2022-08-24T03:44:32;99789.28;;;18.39;61.92
6216;BME280;3141;49.234;9.326;2022-08-24T03:45:14;99792.34;;;18.36;62.24
6216;BME280;3141;49.234;9.326;2022-08-24T03:45:57;99787.81;;;18.37;62.11
6216;BME280;3141;49.234;9.326;2022-08-24T03:46:40;99791.34;;;18.37;62.27
6216;BME280;3141;49.234;9.326;2022-08-24T03:47:22;99789.53;;;18.45;61.57
6216;BME280;3141;49.234;9.326;2022-08-24T03:48:04;99784.19;;;18.51;61.42
6216;BME280;3141;49.234;9.326;2022-08-24T03:48:48;99787.91;;;18.57;60.96
6216;BME280;3141;49.234;9.326;2022-08-24T03:49:30;99787.69;;;18.52;60.99
6216;BME280;3141;49.234;9.326;2022-08-24T03:50:13;99783.34;;;18.44;61.14
6216;BME280;3141;49.234;9.326;2022-08-24T03:50:56;99787.44;;;18.47;61.17
6216;BME280;3141;49.234;9.326;2022-08-24T03:51:38;99776.97;;;18.52;60.82
6216;BME280;3141;49.234;9.326;2022-08-24T03:52:21;99779.44;;;18.53;60.82
6216;BME280;3141;49.234;9.326;2022-08-24T03:53:03;99781.09;;;18.48;61.20
6216;BME280;3141;49.234;9.326;2022-08-24T03:53:46;99781.72;;;18.50;61.43
6216;BME280;3141;49.234;9.326;2022-08-24T03:54:28;99785.00;;;18.52;61.33
6216;BME280;3141;49.234;9.326;2022-08-24T03:55:11;99781.72;;;18.50;61.04
6216;BME280;3141;49.234;9.326;2022-08-24T03:55:54;99785.59;;;18.47;61.27
6216;BME280;3141;49.234;9.326;2022-08-24T03:56:36;99787.03;;;18.43;61.22
6216;BME280;3141;49.234;9.326;2022-08-24T03:57:19;99791.97;;;18.39;61.44
6216;BME280;3141;49.234;9.326;2022-08-24T03:58:02;99784.53;;;18.35;61.90
6216;BME280;3141;49.234;9.326;2022-08-24T03:58:47;99785.78;;;18.32;62.01
6216;BME280;3141;49.234;9.326;2022-08-24T03:59:30;99788.63;;;18.31;61.96
6216;BME280;3141;49.234;9.326;2022-08-24T04:00:13;99790.72;;;18.35;61.67
6216;BME280;3141;49.234;9.326;2022-08-24T04:00:55;99791.38;;;18.44;61.44
6216;BME280;3141;49.234;9.326;2022-08-24T04:01:39;99786.78;;;18.31;62.38